Time;durP1;ratioP1;P1;durP2;ratioP2;P2;SDS_P1;SDS_P2;PMS_P1;PMS_P2;Temp;Humidity;BMP_temperature;BMP_pressure;BME280_temperature;BME280_humidity;BME280_pressure;Samples;Min_cycle;Max_cycle;Signal;HPM_P1;HPM_P2
2022/08/10 00:00:19;;;;;;;19.83;4.20;;;;;;;22.00;44.92;93603.06;5050097;28;20052;-59
2022/08/10 00:02:15;;;;;;;4.10;3.00;;;;;;;22.00;44.34;93606.63;5049275;28;20037;-61
2022/08/10 00:04:41;;;;;;;3.75;3.45;;;;;;;21.89;44.14;93587.72;5050017;28;20503;-61
2022/08/10 00:07:06;;;;;;;4.35;3.55;;;;;;;21.87;44.65;93596.06;5049898;28;20025;-61
2022/08/10 00:09:32;;;;;;;3.25;2.67;;;;;;;21.78;44.89;93586.44;5049951;28;20226;-62
2022/08/10 00:11:57;;;;;;;10.55;3.63;;;;;;;21.83;44.84;93596.56;5050178;28;20044;-58
2022/08/10 00:14:23;;;;;;;8.88;3.58;;;;;;;21.92;44.49;93594.91;5049606;28;20465;-59
2022/08/10 00:16:48;;;;;;;8.45;3.55;;;;;;;21.83;44.20;93604.25;5049853;28;20071;-60
2022/08/10 00:19:14;;;;;;;3.70;3.33;;;;;;;21.93;43.73;93596.38;5049861;28;20083;-60
2022/08/10 00:21:39;;;;;;;4.38;2.97;;;;;;;22.02;43.58;93597.56;5050790;28;20108;-61
2022/08/10 00:24:05;;;;;;;5.00;2.65;;;;;;;22.02;42.95;93601.09;5050035;28;20025;-50
2022/08/10 00:26:31;;;;;;;3.10;2.78;;;;;;;22.06;43.12;93603.38;5050828;28;20021;-52
2022/08/10 00:28:56;;;;;;;3.20;2.90;;;;;;;22.02;43.17;93608.78;5053340;28;20100;-54
2022/08/10 00:31:22;;;;;;;11.80;3.13;;;;;;;21.99;43.32;93610.75;5053312;28;20237;-54
2022/08/10 00:33:47;;;;;;;4.03;2.95;;;;;;;21.99;42.67;93605.16;5053855;28;20043;-53
2022/08/10 00:36:13;;;;;;;3.20;2.55;;;;;;;22.00;42.56;93606.63;5053935;28;20021;-54
2022/08/10 00:38:38;;;;;;;4.00;2.70;;;;;;;21.96;42.56;93611.28;5054072;28;20382;-55
2022/08/10 00:41:04;;;;;;;3.55;2.95;;;;;;;21.96;42.84;93600.03;5053800;28;20460;-53
2022/08/10 00:43:29;;;;;;;3.70;2.70;;;;;;;21.91;42.94;93610.34;5053600;28;20505;-58
2022/08/10 00:45:55;;;;;;;3.10;2.80;;;;;;;21.88;43.39;93605.94;5053774;28;20047;-57
2022/08/10 00:48:20;;;;;;;4.78;2.58;;;;;;;21.91;43.01;93606.78;5053525;28;20067;-57
2022/08/10 00:50:46;;;;;;;4.30;2.67;;;;;;;21.87;42.82;93605.19;5053583;28;20029;-57
2022/08/10 00:53:11;;;;;;;5.53;2.65;;;;;;;21.83;42.99;93607.06;5053443;28;20017;-58
2022/08/10 00:55:37;;;;;;;4.15;2.50;;;;;;;21.64;43.14;93594.06;5053414;28;20025;-57
2022/08/10 00:58:02;;;;;;;2.65;2.42;;;;;;;21.71;43.72;93597.94;5053280;28;20032;-57
2022/08/10 01:00:28;;;;;;;2.90;2.40;;;;;;;21.77;43.60;93601.81;5053371;28;20040;-58
2022/08/10 01:02:54;;;;;;;3.00;2.63;;;;;;;21.74;43.59;93594.63;5053295;28;20056;-57
2022/08/10 01:05:20;;;;;;;4.47;3.03;;;;;;;21.71;44.43;93603.56;5053437;28;20021;-58
2022/08/10 01:08:27;;;;;;;10.15;3.25;;;;;;;21.69;44.42;93607.00;5035448;28;20028;-60
2022/08/10 01:11:00;;;;;;;3.08;2.72;;;;;;;21.65;44.31;93603.97;4998242;28;20040;-58
2022/08/10 01:13:32;;;;;;;8.57;3.28;;;;;;;21.68;44.35;93599.91;5053107;28;20017;-60
2022/08/10 01:16:17;;;;;;;3.00;2.70;;;;;;;21.63;45.13;93603.88;5052887;28;20045;-59
2022/08/10 01:19:10;;;;;;;6.90;3.45;;;;;;;21.63;45.29;93603.13;5035482;28;20029;-60
2022/08/10 01:22:07;;;;;;;13.35;3.38;;;;;;;21.68;44.92;93599.91;5053018;28;20047;-58
2022/08/10 01:24:51;;;;;;;3.97;2.80;;;;;;;21.68;45.26;93610.41;5053190;28;20191;-58
2022/08/10 01:27:52;;;;;;;3.88;3.03;;;;;;;21.64;45.15;93601.75;5052809;28;20035;-57
2022/08/10 01:30:19;;;;;;;5.30;2.92;;;;;;;21.60;45.49;93604.34;5035337;28;20083;-59
2022/08/10 01:33:02;;;;;;;3.60;3.25;;;;;;;21.60;45.33;93604.34;5052853;28;20032;-60
2022/08/10 01:35:42;;;;;;;4.03;3.20;;;;;;;21.62;45.78;93612.88;5052907;28;20021;-59
2022/08/10 01:38:13;;;;;;;3.08;2.88;;;;;;;21.62;45.62;93596.03;5052607;28;20506;-58
2022/08/10 01:40:44;;;;;;;4.25;3.20;;;;;;;21.64;45.53;93604.56;5053013;28;20021;-58
2022/08/10 01:43:13;;;;;;;3.95;2.72;;;;;;;21.58;45.91;93601.44;5045944;28;20021;-58
2022/08/10 01:45:42;;;;;;;15.90;3.72;;;;;;;21.52;46.68;93601.84;5051667;28;20383;-59
2022/08/10 01:50:55;;;;;;;5.20;3.80;;;;;;;21.42;47.67;93597.72;5051497;28;19916;-59
2022/08/10 01:53:25;;;;;;;15.65;4.68;;;;;;;21.44;46.95;93592.94;5051519;28;20032;-59
2022/08/10 01:55:52;;;;;;;8.30;3.33;;;;;;;21.45;47.17;93588.06;5051153;28;20021;-59
2022/08/10 01:58:18;;;;;;;3.85;3.13;;;;;;;21.42;46.70;93581.59;5052525;28;20119;-59
2022/08/10 02:00:47;;;;;;;4.28;3.35;;;;;;;21.37;47.82;93588.34;5049192;28;20017;-59
2022/08/10 02:03:13;;;;;;;4.22;3.40;;;;;;;21.20;48.18;93591.59;5034401;28;20115;-59
2022/08/10 02:05:41;;;;;;;4.65;3.53;;;;;;;21.17;48.13;93590.00;5017754;28;20116;-59
2022/08/10 02:08:11;;;;;;;4.32;3.55;;;;;;;21.19;47.94;93589.38;5034561;28;20024;-59
2022/08/10 02:10:38;;;;;;;3.45;3.15;;;;;;;21.10;48.86;93591.00;5034356;28;20074;-60
2022/08/10 02:13:05;;;;;;;4.25;3.70;;;;;;;21.10;49.16;93602.22;5034423;28;20476;-59
2022/08/10 02:15:32;;;;;;;4.43;3.88;;;;;;;21.08;49.20;93583.19;5051867;28;20099;-59
2022/08/10 02:17:59;;;;;;;3.50;3.13;;;;;;;21.06;49.00;93591.50;5034557;28;20036;-60
2022/08/10 02:20:27;;;;;;;6.25;3.55;;;;;;;21.02;49.45;93593.31;5034029;28;20032;-59
2022/08/10 02:22:58;;;;;;;4.17;3.57;;;;;;;20.99;49.28;93583.31;5034360;28;20028;-60
2022/08/10 02:25:25;;;;;;;5.55;3.50;;;;;;;20.97;49.41;93588.81;5051929;28;20021;-60
2022/08/10 02:27:51;;;;;;;6.28;3.55;;;;;;;21.00;49.50;93584.78;5034291;28;20099;-59
2022/08/10 02:30:17;;;;;;;4.53;3.53;;;;;;;20.91;49.78;93582.84;5033807;28;20091;-60
2022/08/10 02:32:44;;;;;;;3.83;3.03;;;;;;;20.91;50.08;93582.84;5033879;28;20065;-58
2022/08/10 02:35:11;;;;;;;3.63;3.33;;;;;;;20.84;50.58;93592.25;5051638;28;20029;-58
2022/08/10 02:37:39;;;;;;;6.47;3.42;;;;;;;20.87;50.22;93594.56;5033745;28;20024;-54
2022/08/10 02:40:05;;;;;;;5.80;3.42;;;;;;;20.92;50.18;93584.31;5015984;28;20777;-54
2022/08/10 02:42:40;;;;;;;5.40;3.78;;;;;;;20.91;50.22;93582.84;5032522;28;20137;-55
2022/08/10 02:45:12;;;;;;;4.15;3.25;;;;;;;20.75;51.13;93581.91;5049618;28;20043;-55
2022/08/10 02:47:56;;;;;;;3.55;3.25;;;;;;;20.78;50.42;93569.44;5050225;28;20041;-54
2022/08/10 02:50:31;;;;;;;6.45;3.70;;;;;;;20.66;50.73;93575.06;5033134;28;20025;-58
2022/08/10 02:53:04;;;;;;;7.72;3.97;;;;;;;20.67;51.03;93578.63;5049473;28;20468;-58
2022/08/10 02:55:29;;;;;;;4.53;3.75;;;;;;;20.63;51.44;93587.53;5050258;28;20036;-53
2022/08/10 02:57:56;;;;;;;4.38;3.65;;;;;;;20.60;51.49;93579.59;5050510;28;20025;-53
2022/08/10 03:00:23;;;;;;;4.55;3.28;;;;;;;20.64;51.22;93582.66;5032450;28;20048;-54
2022/08/10 03:02:49;;;;;;;7.93;3.90;;;;;;;20.61;51.42;93579.00;5031620;28;20051;-60
2022/08/10 03:05:16;;;;;;;4.22;3.53;;;;;;;20.51;51.86;93583.28;5032937;28;20025;-60
2022/08/10 03:07:47;;;;;;;4.65;3.80;;;;;;;20.51;52.09;93586.09;5032187;28;20020;-59
2022/08/10 03:10:25;;;;;;;5.82;4.32;;;;;;;20.52;52.42;93588.28;5050016;28;20036;-59
2022/08/10 03:12:55;;;;;;;3.83;3.40;;;;;;;20.46;52.41;93590.72;5049783;28;20031;-56
2022/08/10 03:15:21;;;;;;;8.05;4.22;;;;;;;20.42;53.40;93584.88;5032599;28;20072;-57
2022/08/10 03:17:48;;;;;;;5.65;4.03;;;;;;;20.38;52.69;93579.00;5033054;28;20032;-59
2022/08/10 03:20:14;;;;;;;4.40;4.00;;;;;;;20.39;53.12;93588.91;5032911;28;20043;-61
2022/08/10 03:22:40;;;;;;;4.43;4.03;;;;;;;20.49;52.81;93597.19;5033247;28;20040;-61
2022/08/10 03:25:08;;;;;;;3.60;3.30;;;;;;;20.50;52.56;93602.19;5032855;28;20490;-61
2022/08/10 03:27:33;;;;;;;10.32;4.47;;;;;;;20.44;53.22;93604.63;5032949;28;20041;-60
2022/08/10 03:29:59;;;;;;;5.75;4.03;;;;;;;20.45;52.90;93594.13;5032799;28;20048;-60
2022/08/10 03:32:25;;;;;;;6.43;4.38;;;;;;;20.52;52.31;93602.31;5050070;28;20044;-59
2022/08/10 03:34:51;;;;;;;7.13;3.90;;;;;;;20.53;52.17;93609.38;5025992;28;20035;-58
2022/08/10 03:37:16;;;;;;;3.55;3.25;;;;;;;20.44;52.04;93562.56;5050631;28;20025;-58
2022/08/10 03:39:42;;;;;;;8.02;4.10;;;;;;;20.78;52.21;93609.47;5050167;28;20029;-58
2022/08/10 03:42:11;;;;;;;6.05;3.78;;;;;;;20.81;51.63;93611.03;5038277;28;20024;-57
2022/08/10 03:44:37;;;;;;;6.85;3.75;;;;;;;20.76;51.68;93595.31;5046148;28;20092;-58
2022/08/10 03:47:04;;;;;;;6.65;3.90;;;;;;;20.96;51.68;93610.53;5012872;28;20040;-58
2022/08/10 03:49:30;;;;;;;13.20;3.80;;;;;;;21.01;51.79;93617.84;5012948;28;20171;-59
2022/08/10 03:51:57;;;;;;;13.43;4.25;;;;;;;20.98;53.05;93593.09;5012914;28;20037;-59
2022/08/10 03:54:24;;;;;;;3.38;3.08;;;;;;;21.16;52.84;93613.78;5012548;28;20022;-58
2022/08/10 03:56:50;;;;;;;4.28;3.65;;;;;;;21.08;52.21;93602.09;5012305;28;20487;-58
2022/08/10 03:59:15;;;;;;;7.93;3.75;;;;;;;21.22;51.52;93613.44;5030289;28;20028;-58
2022/08/10 04:01:41;;;;;;;4.57;3.25;;;;;;;21.25;51.69;93612.19;5023800;28;20095;-58
2022/08/10 04:04:07;;;;;;;8.02;3.88;;;;;;;21.26;51.87;93616.47;5049998;28;20048;-58
2022/08/10 04:06:33;;;;;;;8.40;4.00;;;;;;;21.28;51.98;93620.13;5049842;28;20029;-59
2022/08/10 04:08:58;;;;;;;7.07;4.10;;;;;;;21.18;52.10;93622.34;5049903;28;20025;-59
2022/08/10 04:11:24;;;;;;;4.60;3.72;;;;;;;21.18;52.68;93627.25;5036116;28;20030;-60
2022/08/10 04:13:49;;;;;;;3.53;3.22;;;;;;;21.14;52.65;93631.25;5038422;28;20033;-59
2022/08/10 04:16:15;;;;;;;5.28;3.55;;;;;;;21.28;52.40;93625.00;5049534;28;20095;-60
2022/08/10 04:18:41;;;;;;;10.15;3.83;;;;;;;21.20;51.77;93608.44;5049791;28;20053;-60
2022/08/10 04:21:21;;;;;;;8.40;4.05;;;;;;;21.29;53.23;93632.09;5048343;28;20043;-59
2022/08/10 04:23:48;;;;;;;13.52;3.97;;;;;;;21.20;53.34;93627.34;5048974;28;20032;-59
2022/08/10 04:26:14;;;;;;;10.65;4.03;;;;;;;21.28;53.68;93636.25;5049921;28;20025;-59
2022/08/10 04:28:41;;;;;;;10.57;3.90;;;;;;;21.34;53.86;93628.16;5049902;28;20028;-59
2022/08/10 04:31:08;;;;;;;4.85;4.03;;;;;;;21.42;53.02;93626.53;5049828;28;20035;-59
2022/08/10 04:33:34;;;;;;;9.38;4.30;;;;;;;21.38;53.78;93634.72;5032299;28;20037;-59
2022/08/10 04:36:01;;;;;;;7.53;3.50;;;;;;;21.37;52.88;93627.66;5032275;28;20017;-59
2022/08/10 04:38:27;;;;;;;7.28;4.40;;;;;;;21.44;52.90;93623.13;5032235;28;20024;-57
2022/08/10 04:40:53;;;;;;;10.55;4.20;;;;;;;21.47;52.45;93633.13;5032315;28;20029;-59
2022/08/10 04:43:18;;;;;;;10.25;3.60;;;;;;;21.44;51.52;93623.84;5044319;28;20098;-59
2022/08/10 04:45:44;;;;;;;13.52;3.90;;;;;;;21.35;52.21;93624.00;5048761;28;20025;-59
2022/08/10 04:48:10;;;;;;;4.18;3.53;;;;;;;21.40;51.74;93620.06;5049570;28;20521;-58
2022/08/10 04:50:36;;;;;;;4.90;3.55;;;;;;;21.34;52.01;93622.53;5049533;28;20021;-57
2022/08/10 04:53:02;;;;;;;7.43;3.38;;;;;;;21.28;52.26;93613.78;5049973;28;20020;-57
2022/08/10 04:55:28;;;;;;;3.85;3.45;;;;;;;21.29;52.15;93610.34;5049722;28;20047;-57
2022/08/10 04:57:53;;;;;;;3.67;3.13;;;;;;;21.28;52.10;93613.78;5049580;28;20021;-56
2022/08/10 05:00:18;;;;;;;4.28;3.63;;;;;;;21.24;52.25;93614.28;5049327;28;20029;-59
2022/08/10 05:02:45;;;;;;;10.27;4.30;;;;;;;21.21;52.45;93617.56;5049747;28;20071;-58
2022/08/10 05:05:11;;;;;;;11.90;3.70;;;;;;;21.12;52.48;93619.91;5049550;28;20025;-59
2022/08/10 05:07:36;;;;;;;14.85;4.57;;;;;;;20.93;52.75;93589.31;5049317;28;20033;-60
2022/08/10 05:10:02;;;;;;;6.65;3.60;;;;;;;21.13;52.30;93621.41;5034002;28;20061;-57
2022/08/10 05:12:28;;;;;;;7.63;3.30;;;;;;;21.16;52.73;93615.91;5053426;28;20052;-58
2022/08/10 05:14:54;;;;;;;3.58;3.20;;;;;;;21.17;52.81;93620.88;5053134;28;20051;-58
2022/08/10 05:17:19;;;;;;;7.10;3.72;;;;;;;21.27;53.18;93623.56;5035376;28;20486;-58
2022/08/10 05:19:45;;;;;;;9.63;3.58;;;;;;;21.31;52.21;93615.34;5052577;28;20103;-59
2022/08/10 05:22:10;;;;;;;5.82;3.88;;;;;;;21.34;52.62;93622.53;5052953;28;20399;-58
2022/08/10 05:24:36;;;;;;;5.80;3.75;;;;;;;21.35;52.41;93612.78;5052850;28;20028;-59
2022/08/10 05:27:02;;;;;;;4.97;3.42;;;;;;;21.43;52.00;93624.47;5052870;28;20027;-60
2022/08/10 05:29:28;;;;;;;4.40;3.60;;;;;;;21.21;52.63;93578.25;5052795;28;20154;-59
2022/08/10 05:31:54;;;;;;;36.72;6.60;;;;;;;21.23;52.78;93589.59;5053019;28;20059;-59
2022/08/10 05:34:25;;;;;;;8.98;3.80;;;;;;;21.49;52.73;93619.19;5035196;28;20102;-58
2022/08/10 05:36:51;;;;;;;6.28;3.72;;;;;;;21.55;52.05;93622.34;5052744;28;20036;-59
2022/08/10 05:39:17;;;;;;;4.95;3.40;;;;;;;21.56;52.09;93616.09;5052883;28;20033;-59
2022/08/10 05:41:42;;;;;;;4.30;3.53;;;;;;;21.64;52.50;93613.75;5037424;28;20473;-59
2022/08/10 05:44:08;;;;;;;5.55;3.75;;;;;;;21.69;52.17;93620.31;5054932;28;20032;-59
2022/08/10 05:46:33;;;;;;;11.98;4.07;;;;;;;21.76;52.58;93611.63;5072716;28;20040;-59
2022/08/10 05:48:59;;;;;;;28.70;17.92;;;;;;;21.80;52.29;93611.09;5072781;28;20029;-58
2022/08/10 05:51:25;;;;;;;15.23;12.98;;;;;;;21.77;52.22;93606.72;5069349;28;20524;-58
2022/08/10 05:53:51;;;;;;;10.25;7.80;;;;;;;21.87;52.75;93621.34;5034946;28;20459;-58
2022/08/10 05:56:16;;;;;;;6.80;4.57;;;;;;;21.89;52.98;93610.22;5034722;28;20410;-58
2022/08/10 05:58:42;;;;;;;4.55;4.07;;;;;;;21.92;52.25;93602.63;5052618;28;20036;-58
2022/08/10 06:01:11;;;;;;;4.63;4.15;;;;;;;22.02;52.74;93606.72;5051612;28;20387;-58
2022/08/10 06:03:52;;;;;;;7.18;4.15;;;;;;;22.09;52.53;93604.97;5052488;28;20032;-59
2022/08/10 06:06:19;;;;;;;6.00;4.30;;;;;;;22.16;51.96;93606.75;5034352;28;20094;-58
2022/08/10 06:08:45;;;;;;;4.55;3.85;;;;;;;22.28;52.15;93598.97;5042512;28;20025;-58
2022/08/10 06:11:13;;;;;;;7.30;4.28;;;;;;;22.30;52.11;93605.44;5050927;28;20024;-58
2022/08/10 06:16:27;;;;;;;10.32;4.93;;;;;;;22.40;50.43;93608.03;5052019;28;20051;-58
2022/08/10 06:18:54;;;;;;;9.75;4.00;;;;;;;22.39;51.61;93610.09;5033875;28;20037;-58
2022/08/10 06:21:20;;;;;;;6.07;4.05;;;;;;;22.54;51.28;93601.06;5050327;28;20540;-57
2022/08/10 06:23:46;;;;;;;6.78;4.10;;;;;;;22.48;51.10;93611.28;5027798;28;20426;-60
2022/08/10 06:26:11;;;;;;;5.03;4.55;;;;;;;22.59;50.03;93611.19;5032469;28;20021;-60
2022/08/10 06:28:38;;;;;;;4.65;4.10;;;;;;;22.63;51.27;93614.22;5051576;28;20036;-58
2022/08/10 06:31:05;;;;;;;7.47;4.50;;;;;;;22.39;49.93;93581.97;5051560;28;20024;-59
2022/08/10 06:33:33;;;;;;;5.10;3.63;;;;;;;22.72;51.14;93617.47;5035640;28;20062;-58
2022/08/10 06:36:00;;;;;;;8.40;3.83;;;;;;;22.76;51.64;93624.03;5034099;28;20024;-59
2022/08/10 06:38:29;;;;;;;11.93;5.38;;;;;;;22.80;49.62;93603.81;5051752;28;20036;-59
2022/08/10 06:40:56;;;;;;;4.95;4.45;;;;;;;22.97;50.75;93625.81;5034011;28;20029;-60
2022/08/10 06:43:22;;;;;;;9.70;4.18;;;;;;;23.03;50.61;93621.22;5031677;28;20564;-58
2022/08/10 06:45:52;;;;;;;5.82;3.63;;;;;;;23.16;49.92;93631.00;5023656;28;20037;-60
2022/08/10 06:48:26;;;;;;;6.75;4.80;;;;;;;23.30;49.74;93643.69;5028149;28;20494;-54
2022/08/10 06:50:59;;;;;;;6.95;3.85;;;;;;;23.31;49.10;93638.78;5032243;28;20029;-58
2022/08/10 06:53:30;;;;;;;4.95;4.00;;;;;;;22.99;48.94;93604.13;5046388;28;20425;-58
2022/08/10 06:56:03;;;;;;;4.75;4.30;;;;;;;23.24;49.95;93637.75;5045847;28;20024;-57
2022/08/10 06:58:34;;;;;;;4.10;3.70;;;;;;;23.22;49.42;93640.47;5048652;28;20025;-58
2022/08/10 07:01:03;;;;;;;13.40;4.15;;;;;;;23.27;50.30;93647.78;5026951;28;20112;-60
2022/08/10 07:03:34;;;;;;;4.97;4.38;;;;;;;23.35;51.11;93645.38;5033060;28;20040;-57
2022/08/10 07:06:00;;;;;;;5.68;3.75;;;;;;;23.45;50.06;93652.91;5051201;28;20033;-57
2022/08/10 07:08:27;;;;;;;8.88;4.30;;;;;;;23.53;49.26;93653.28;5033413;28;20087;-60
2022/08/10 07:10:53;;;;;;;6.07;4.35;;;;;;;23.58;49.13;93643.69;5051190;28;20036;-60
2022/08/10 07:13:19;;;;;;;12.00;3.80;;;;;;;23.56;50.15;93641.50;5031651;28;20029;-59
2022/08/10 07:15:48;;;;;;;10.63;4.53;;;;;;;23.51;50.22;93645.47;5032937;28;20072;-59
2022/08/10 07:18:14;;;;;;;6.13;4.00;;;;;;;23.57;50.39;93648.56;5033275;28;20079;-57
2022/08/10 07:20:41;;;;;;;6.35;3.90;;;;;;;23.60;48.55;93647.31;5033008;28;21034;-60
2022/08/10 07:23:10;;;;;;;7.70;4.25;;;;;;;23.69;49.65;93642.81;5041219;28;20113;-58
2022/08/10 07:25:35;;;;;;;;;;;;;;;23.65;48.70;93643.31;5045843;28;20025;-59
2022/08/10 07:28:01;;;;;;;4.15;3.75;;;;;;;23.77;48.33;93651.66;5047725;28;20003;-58
2022/08/10 07:30:35;;;;;;;8.40;4.43;;;;;;;23.94;49.36;93642.59;5014353;28;20112;-57
2022/08/10 07:33:01;;;;;;;5.93;4.05;;;;;;;24.29;49.05;93642.88;5023438;28;20094;-59
2022/08/10 07:35:28;;;;;;;4.47;4.07;;;;;;;24.57;46.22;93640.63;5036813;28;20121;-58
2022/08/10 07:37:54;;;;;;;8.48;4.28;;;;;;;24.86;45.60;93648.28;5014032;28;20152;-59
2022/08/10 07:40:20;;;;;;;11.80;4.03;;;;;;;24.98;45.44;93651.66;5011134;28;20018;-58
2022/08/10 07:42:51;;;;;;;14.77;4.07;;;;;;;25.60;43.70;93645.16;5023516;28;20193;-58
2022/08/10 07:45:17;;;;;;;4.03;3.63;;;;;;;26.16;42.16;93636.84;5024440;28;20025;-59
2022/08/10 07:47:55;;;;;;;4.68;3.90;;;;;;;27.11;41.11;93602.84;5045699;28;20036;-59
2022/08/10 07:50:23;;;;;;;5.90;3.65;;;;;;;28.59;36.97;93637.56;5015684;28;20112;-59
2022/08/10 07:52:51;;;;;;;4.65;3.60;;;;;;;29.12;36.79;93634.84;5044062;28;20059;-59
2022/08/10 07:55:19;;;;;;;3.43;3.13;;;;;;;29.69;36.87;93629.28;5021434;28;20040;-59
2022/08/10 07:57:47;;;;;;;10.27;4.13;;;;;;;30.87;33.84;93632.84;5033192;28;20029;-59
2022/08/10 08:00:13;;;;;;;3.60;3.17;;;;;;;31.66;32.52;93623.75;5013264;28;20033;-60
2022/08/10 08:02:51;;;;;;;4.38;3.72;;;;;;;32.68;30.85;93619.72;5023779;28;20494;-59
2022/08/10 08:05:20;;;;;;;3.88;2.97;;;;;;;33.57;28.58;93618.72;5012919;28;20053;-61
2022/08/10 08:07:46;;;;;;;4.63;3.35;;;;;;;34.04;28.92;93625.66;5030423;28;20104;-60
2022/08/10 08:10:12;;;;;;;4.75;3.45;;;;;;;34.34;28.43;93617.31;5012320;28;20129;-60
2022/08/10 08:12:39;;;;;;;8.73;3.05;;;;;;;34.90;27.14;93622.72;5029600;28;20537;-61
2022/08/10 08:15:06;;;;;;;5.53;3.97;;;;;;;34.98;26.30;93624.91;5048480;28;20486;-60
2022/08/10 08:17:33;;;;;;;3.43;3.13;;;;;;;35.54;26.24;93618.75;5032186;28;20544;-61
2022/08/10 08:19:59;;;;;;;3.30;2.75;;;;;;;35.74;26.84;93608.03;5031937;28;20052;-59
2022/08/10 08:22:25;;;;;;;5.47;2.85;;;;;;;35.75;25.71;93609.47;5032121;28;20068;-60
2022/08/10 08:24:51;;;;;;;7.47;4.43;;;;;;;35.25;26.17;93617.91;5032178;28;20029;-60
2022/08/10 08:27:18;;;;;;;4.15;3.75;;;;;;;35.07;25.93;93620.69;5032285;28;20092;-61
2022/08/10 08:29:48;;;;;;;9.25;4.50;;;;;;;35.79;25.35;93618.09;5024266;28;20249;-60
2022/08/10 08:32:21;;;;;;;5.72;5.05;;;;;;;35.51;25.68;93629.50;5041649;28;20403;-60
2022/08/10 08:34:48;;;;;;;5.63;3.83;;;;;;;35.78;26.14;93605.16;5029796;28;20029;-59
2022/08/10 08:37:16;;;;;;;4.53;2.80;;;;;;;35.88;24.31;93621.69;5029937;28;20029;-61
2022/08/10 08:39:42;;;;;;;4.97;2.72;;;;;;;35.64;25.59;93613.75;5012362;28;20048;-60
2022/08/10 08:42:32;;;;;;;4.32;3.00;;;;;;;35.62;25.16;93613.75;5036224;28;20029;-61
2022/08/10 08:45:07;;;;;;;2.75;2.42;;;;;;;35.41;25.59;93612.19;5050207;28;20532;-59
2022/08/10 08:47:54;;;;;;;9.80;6.05;;;;;;;35.43;25.46;93609.34;5053874;28;20040;-60
2022/08/10 08:50:24;;;;;;;3.83;3.53;;;;;;;34.35;25.88;93621.63;5047081;28;20064;-61
2022/08/10 08:53:22;;;;;;;3.47;3.15;;;;;;;33.28;27.22;93616.97;5019963;28;20523;-60
2022/08/10 08:55:59;;;;;;;3.45;3.20;;;;;;;32.48;28.74;93610.88;5008913;28;20125;-60
2022/08/10 08:58:27;;;;;;;5.18;3.50;;;;;;;31.65;30.03;93614.44;5035690;28;20072;-60
2022/08/10 09:00:56;;;;;;;;;;;;;;;30.92;30.97;93615.16;5048095;28;20036;-60
2022/08/10 09:04:02;;;;;;;4.15;3.13;;;;;;;30.41;32.63;93579.09;5039751;28;19963;-60
2022/08/10 09:06:46;;;;;;;6.03;3.55;;;;;;;30.08;32.13;93621.75;5025227;28;20044;-61
2022/08/10 09:09:43;;;;;;;3.85;3.40;;;;;;;29.79;33.15;93620.31;5047019;28;20104;-61
2022/08/10 09:12:47;;;;;;;6.35;3.30;;;;;;;29.62;34.09;93613.47;5019141;28;20041;-60
2022/08/10 09:15:28;;;;;;;4.10;3.63;;;;;;;29.37;34.48;93617.06;5053150;28;20021;-61
2022/08/10 09:18:15;;;;;;;6.88;3.33;;;;;;;29.39;36.07;93607.88;5035540;28;20049;-59
2022/08/10 09:20:58;;;;;;;3.53;3.20;;;;;;;29.58;34.54;93612.66;5051906;28;20375;-61
2022/08/10 09:23:36;;;;;;;12.15;4.00;;;;;;;29.52;34.96;93613.19;5059002;28;20052;-60
2022/08/10 09:26:19;;;;;;;3.75;3.45;;;;;;;29.60;33.64;93612.69;5046045;28;20502;-61
2022/08/10 09:28:45;;;;;;;3.85;3.25;;;;;;;29.35;34.05;93605.63;5035957;28;20030;-60
2022/08/10 09:31:12;;;;;;;3.90;3.50;;;;;;;29.02;34.86;93611.84;5033185;28;20419;-60
2022/08/10 09:33:59;;;;;;;4.97;3.47;;;;;;;28.80;36.08;93602.66;5033119;28;20036;-60
2022/08/10 09:36:35;;;;;;;4.72;3.55;;;;;;;28.60;35.78;93599.22;5033017;28;20030;-61
2022/08/10 09:39:10;;;;;;;5.28;3.85;;;;;;;28.14;37.01;93613.44;5015219;28;20024;-59
2022/08/10 09:41:57;;;;;;;6.93;3.65;;;;;;;27.60;37.65;93606.72;5016908;28;20037;-59
2022/08/10 09:44:44;;;;;;;7.72;4.20;;;;;;;27.35;39.02;93601.63;5052824;28;20057;-60
2022/08/10 09:47:12;;;;;;;7.90;5.78;;;;;;;27.38;38.24;93611.63;5034670;28;20036;-60
2022/08/10 09:50:03;;;;;;;4.07;3.78;;;;;;;27.51;38.89;93601.44;5052742;28;20017;-60
2022/08/10 09:52:31;;;;;;;9.43;4.03;;;;;;;27.43;38.10;93592.66;5052472;28;20078;-59
2022/08/10 09:55:11;;;;;;;6.35;3.22;;;;;;;27.18;38.68;93590.34;5051935;28;20029;-63
2022/08/10 09:57:55;;;;;;;10.98;3.70;;;;;;;27.28;38.80;93596.38;5037853;28;20029;-62
2022/08/10 10:00:22;;;;;;;3.78;3.20;;;;;;;27.26;40.12;93596.31;5034200;28;20056;-62
2022/08/10 10:03:10;;;;;;;5.28;3.35;;;;;;;27.06;39.73;93587.81;5033233;28;20068;-61
2022/08/10 10:05:38;;;;;;;5.35;3.53;;;;;;;26.88;39.47;93590.00;5031718;28;20025;-61
2022/08/10 10:08:33;;;;;;;37.95;6.00;;;;;;;26.78;41.10;93593.22;5050882;28;20028;-62
2022/08/10 10:11:11;;;;;;;5.05;3.78;;;;;;;26.74;40.49;93603.66;5050281;28;20040;-61
2022/08/10 10:13:49;;;;;;;4.53;4.07;;;;;;;26.67;40.97;93614.03;5049320;28;20791;-62
2022/08/10 10:16:37;;;;;;;4.50;3.58;;;;;;;26.66;40.49;93606.19;5049427;28;20040;-62
2022/08/10 10:19:21;;;;;;;5.13;3.85;;;;;;;26.66;40.65;93614.69;5047221;28;20037;-62
2022/08/10 10:22:03;;;;;;;6.20;3.88;;;;;;;26.67;41.30;93599.84;5048732;28;20417;-62
2022/08/10 10:24:38;;;;;;;6.05;3.92;;;;;;;26.73;41.42;93605.78;5048839;28;20052;-61
2022/08/10 10:27:18;;;;;;;5.18;4.32;;;;;;;26.84;40.42;93590.59;5026074;28;20052;-63
2022/08/10 10:30:06;;;;;;;6.43;4.28;;;;;;;26.89;40.77;93599.97;5032121;28;20031;-62
2022/08/10 10:32:38;;;;;;;3.63;3.33;;;;;;;26.77;40.65;93591.75;5049096;28;20048;-62
2022/08/10 10:35:26;;;;;;;5.65;3.88;;;;;;;26.89;40.62;93585.81;5050661;28;20079;-62
2022/08/10 10:37:53;;;;;;;4.60;4.03;;;;;;;26.98;40.90;93593.91;5030435;28;20438;-62
2022/08/10 10:40:20;;;;;;;7.28;4.10;;;;;;;27.93;39.68;93594.31;5033180;28;20118;-62
2022/08/10 10:42:53;;;;;;;6.45;3.42;;;;;;;29.53;36.55;93586.22;5030446;28;20024;-61
2022/08/10 10:45:24;;;;;;;3.33;3.03;;;;;;;31.04;33.52;93580.44;5034770;28;20067;-61
2022/08/10 10:48:11;;;;;;;8.52;3.33;;;;;;;32.18;31.41;93585.38;5047939;28;20017;-63
2022/08/10 10:50:52;;;;;;;4.13;3.10;;;;;;;32.65;29.69;93583.22;5048826;28;20063;-63
2022/08/10 10:53:34;;;;;;;4.40;3.90;;;;;;;33.12;29.42;93578.81;5048095;28;20033;-61
2022/08/10 10:56:18;;;;;;;3.83;3.53;;;;;;;32.58;29.64;93553.81;5032193;28;20021;-63
2022/08/10 10:59:02;;;;;;;3.47;3.17;;;;;;;32.65;30.04;93572.50;5056608;28;20025;-62
2022/08/10 11:01:34;;;;;;;3.72;3.42;;;;;;;32.95;29.83;93577.91;5045711;28;20021;-62
2022/08/10 11:04:28;;;;;;;4.20;3.83;;;;;;;32.92;29.92;93567.84;5031776;28;20027;-62
2022/08/10 11:07:16;;;;;;;4.40;3.40;;;;;;;32.84;30.44;93562.75;5027249;28;20410;-61
2022/08/10 11:09:47;;;;;;;5.45;3.70;;;;;;;33.36;29.91;93553.34;5027841;28;20455;-60
2022/08/10 11:12:16;;;;;;;3.72;2.97;;;;;;;33.40;29.43;93554.09;5029949;28;20041;-61
2022/08/10 11:14:55;;;;;;;3.58;3.28;;;;;;;33.64;29.55;93527.88;5047450;28;20025;-61
2022/08/10 11:17:36;;;;;;;5.60;4.38;;;;;;;34.00;30.79;93538.94;5029485;28;20067;-61
2022/08/10 11:20:11;;;;;;;5.60;2.90;;;;;;;34.07;29.20;93555.47;5029520;28;20017;-60
2022/08/10 11:22:42;;;;;;;3.58;2.97;;;;;;;33.79;28.66;93551.63;5021827;28;20043;-61
2022/08/10 11:25:28;;;;;;;4.35;3.10;;;;;;;33.51;29.45;93543.50;5047661;28;20059;-62
2022/08/10 11:28:12;;;;;;;3.92;3.42;;;;;;;33.32;30.24;93547.56;5029391;28;20555;-61
2022/08/10 11:31:12;;;;;;;25.60;4.82;;;;;;;33.12;30.99;93550.22;5044379;28;20028;-61
2022/08/10 11:33:50;;;;;;;4.63;3.28;;;;;;;32.68;30.26;93551.09;5045665;28;20036;-62
2022/08/10 11:36:22;;;;;;;3.87;3.57;;;;;;;32.45;30.17;93552.19;5026666;28;20017;-61
2022/08/10 11:39:05;;;;;;;5.20;3.50;;;;;;;32.15;32.63;93540.34;5045712;28;20029;-59
2022/08/10 11:41:36;;;;;;;3.13;2.83;;;;;;;32.17;32.67;93555.38;5028041;28;20036;-61
2022/08/10 11:44:25;;;;;;;10.70;3.60;;;;;;;31.76;32.01;93546.81;5046345;28;20036;-60
2022/08/10 11:47:05;;;;;;;7.07;4.30;;;;;;;31.01;33.42;93559.72;5028846;28;20082;-62
2022/08/10 11:49:50;;;;;;;3.80;3.13;;;;;;;30.24;34.82;93545.94;5046676;28;20033;-61
2022/08/10 11:53:07;;;;;;;7.95;4.05;;;;;;;29.56;37.21;93544.31;5044862;28;20028;-58
2022/08/10 11:55:33;;;;;;;3.88;3.58;;;;;;;28.90;36.98;93557.47;5020953;28;20047;-61